Kisaragi Maru No.11 — JD2766 — position and weather

sailwx.info

Track history (hours):
 
Tides and Currents Weather Stations Pressure Air Temp Water Temp Dewpoint Dewpoint Depression Visibility Wind Speed Wind Dir Waves Ship Positions

Kisaragi Maru No.11

Last reported at 2017-Oct-17 18:52 UTC. Time now 2017-Oct-18 01:59 UTC.
Position N 34°53' E 139°49'.

Length 79 m; draft 3.8 m.

MMSI: 431000664.

Date/timePositionNaut miles runAvg speedWind from/ knotsBaromVisibWave heightAir tempDewpointWater temp
2017-Oct-17 18:52N 34°53' E 139°49'615.1
2017-Oct-17 18:30N 34°57' E 139°44'612.9
2017-Oct-17 18:00N 35°03' E 139°44'612.7
2017-Oct-17 17:30N 35°09' E 139°45'612.8
2017-Oct-17 17:00N 35°16' E 139°46'612.6
2017-Oct-17 16:30N 35°21' E 139°42'612.5
2017-Oct-17 16:00N 35°27' E 139°47'1013.3
2017-Oct-17 15:13N 35°31' E 139°58'2 0.1
2017-Oct-16 00:22N 35°30' E 139°60'0 0.0
2017-Oct-15 23:49N 35°30' E 139°60'5 0.2
2017-Oct-14 21:10N 35°29' E 139°54'210.9
2017-Oct-14 21:01N 35°28' E 139°52'611.3
2017-Oct-14 20:30N 35°25' E 139°47'611.5
2017-Oct-14 20:01N 35°19' E 139°44'510.3
2017-Oct-14 19:31N 35°15' E 139°47'611.1
2017-Oct-14 19:00N 35°09' E 139°46'612.2
2017-Oct-14 18:31N 35°03' E 139°45'611.7
2017-Oct-14 18:01N 34°57' E 139°44'  
2017-Oct-10 07:46N 34°54' E 139°48'413.5
2017-Oct-10 07:28N 34°57' E 139°44'612.3
2017-Oct-10 07:00N 35°02' E 139°44'713.4
2017-Oct-10 06:30N 35°09' E 139°45'713.2
2017-Oct-10 06:00N 35°15' E 139°46'612.6
2017-Oct-10 05:31N 35°21' E 139°42'611.9
2017-Oct-10 05:01N 35°26' E 139°46'713.3
2017-Oct-10 04:30N 35°30' E 139°52'713.5
2017-Oct-10 04:00N 35°30' E 140°01'11 0.5
2017-Oct-09 03:50N 35°26' E 139°48'511.7
2017-Oct-09 03:23N 35°21' E 139°45'410.7
2017-Oct-09 03:00N 35°17' E 139°45'510.9
2017-Oct-09 02:30N 35°12' E 139°47'612.1
2017-Oct-09 02:00N 35°06' E 139°46'611.9
2017-Oct-09 01:30N 35°00' E 139°44'  
Track history (hours):
 
Tides and Currents Weather Stations Pressure Air Temp Water Temp Dewpoint Dewpoint Depression Visibility Wind Speed Wind Dir Waves Ship Positions

Kisaragi Maru No.11

Last reported at 2017-Oct-17 18:52 UTC. Time now 2017-Oct-18 01:59 UTC.
Position N 34°53' E 139°49'.

Length 79 m; draft 3.8 m.

MMSI: 431000664.

Date/timePositionNaut miles runAvg speedWind from/ knotsBaromVisibWave heightAir tempDewpointWater temp
2017-Oct-17 18:52N 34°53' E 139°49'615.1
2017-Oct-17 18:30N 34°57' E 139°44'612.9
2017-Oct-17 18:00N 35°03' E 139°44'612.7
2017-Oct-17 17:30N 35°09' E 139°45'612.8
2017-Oct-17 17:00N 35°16' E 139°46'612.6
2017-Oct-17 16:30N 35°21' E 139°42'612.5
2017-Oct-17 16:00N 35°27' E 139°47'1013.3
2017-Oct-17 15:13N 35°31' E 139°58'2 0.1
2017-Oct-16 00:22N 35°30' E 139°60'0 0.0
2017-Oct-15 23:49N 35°30' E 139°60'5 0.2
2017-Oct-14 21:10N 35°29' E 139°54'210.9
2017-Oct-14 21:01N 35°28' E 139°52'611.3
2017-Oct-14 20:30N 35°25' E 139°47'611.5
2017-Oct-14 20:01N 35°19' E 139°44'510.3
2017-Oct-14 19:31N 35°15' E 139°47'611.1
2017-Oct-14 19:00N 35°09' E 139°46'612.2
2017-Oct-14 18:31N 35°03' E 139°45'611.7
2017-Oct-14 18:01N 34°57' E 139°44'  
2017-Oct-10 07:46N 34°54' E 139°48'413.5
2017-Oct-10 07:28N 34°57' E 139°44'612.3
2017-Oct-10 07:00N 35°02' E 139°44'713.4
2017-Oct-10 06:30N 35°09' E 139°45'713.2
2017-Oct-10 06:00N 35°15' E 139°46'612.6
2017-Oct-10 05:31N 35°21' E 139°42'611.9
2017-Oct-10 05:01N 35°26' E 139°46'713.3
2017-Oct-10 04:30N 35°30' E 139°52'713.5
2017-Oct-10 04:00N 35°30' E 140°01'11 0.5
2017-Oct-09 03:50N 35°26' E 139°48'511.7
2017-Oct-09 03:23N 35°21' E 139°45'410.7
2017-Oct-09 03:00N 35°17' E 139°45'510.9
2017-Oct-09 02:30N 35°12' E 139°47'612.1
2017-Oct-09 02:00N 35°06' E 139°46'611.9
2017-Oct-09 01:30N 35°00' E 139°44'  

Dump ship's entire track history